Aérodrome :
LOGIN :

S'inscrire | Disclaimer

   EN    FR    IT 

 










Légende :    VFR   VFR Marginal   IFR   IFR Intensif   IFR Très Intensif
Visi : 
Plafond : 
>= 8 km
>= 3000ft
5 à 8 km
1000 à 3000 ft
1500m à 5 km
500 à 1000 ft
800 à 1500m
200 à 500 ft
< 800m
< 200 ft
Symboles :   Orages  Brouillard  Fortes neiges  Fortes précipitations  Vent > 20 kt
SIGMETs :   Divers  Orages  Givrage  Turbulence  Onde Orograph.  Cendres Volcan.







- Altitude de l'aérodrome : 1090 ft
- Code IATA : CFE
- Voir les cartes d'approche


LFLC - Clermont-Ferrand Auvergne

DERNIER METAR :
  • 230700Z AUTO 36001KT CAVOK 06/00 Q1028 NOSIG

METARs EXPIRÉS :
  • 230630Z AUTO 05003KT CAVOK 04/M01 Q1028 NOSIG
  • 230600Z AUTO 34003KT CAVOK 02/M02 Q1028 NOSIG
  • 230530Z AUTO VRB03KT CAVOK 03/M02 Q1028 NOSIG
  • 230500Z AUTO 34004KT CAVOK 04/M02 Q1028 NOSIG
  • 230430Z AUTO 34004KT 310V020 CAVOK 03/M02 Q1028 NOSIG
  • 230400Z AUTO 01003KT 320V060 CAVOK 05/M01 Q1028 NOSIG

TAF TAF LFLC
Valide du 23 à 03h jusqu'au 24 à 03h UTC


230200Z 2303/2403 VRB03KT CAVOK
TEMPO 2312/2324 02008KT
ATIS : +33 4 73 62 74 38
Pas de NOTAMs connus pour ce terrain.



MET'MAP, la Météo Aéronautique d'un coup d'oeil ! - Copyright ORBIFLY Décembre 2007 - Disclaimer

ORBIFLY MET'MAP TEAM :

Programmation & Développement : Alexandra Zaïnal
Conception & Développement : Baudouin d'Aumeries
Co-Programmation & Développement : Marc-Olivier Méhu
Soutien technique & logistique : Manuel Goepfert

Contact : metmap@orbifly.com




SOURCES & CREDITS :

   NOAA